sensor_id;sensor_type;location;lat;lon;timestamp;P1;durP1;ratioP1;P2;durP2;ratioP2
23561;SDS011;11959;49.418;8.728;2024-01-27T00:01:42;8.25;;;3.33;;
23561;SDS011;11959;49.418;8.728;2024-01-27T00:04:08;8.52;;;3.15;;
23561;SDS011;11959;49.418;8.728;2024-01-27T00:06:33;5.88;;;2.60;;
23561;SDS011;11959;49.418;8.728;2024-01-27T00:08:59;6.68;;;2.85;;
23561;SDS011;11959;49.418;8.728;2024-01-27T00:11:25;4.43;;;2.25;;
23561;SDS011;11959;49.418;8.728;2024-01-27T00:13:51;6.97;;;2.83;;
23561;SDS011;11959;49.418;8.728;2024-01-27T00:16:17;6.60;;;3.25;;
23561;SDS011;11959;49.418;8.728;2024-01-27T00:18:42;6.57;;;3.00;;
23561;SDS011;11959;49.418;8.728;2024-01-27T00:21:08;7.75;;;2.97;;
23561;SDS011;11959;49.418;8.728;2024-01-27T00:23:33;4.70;;;3.15;;
23561;SDS011;11959;49.418;8.728;2024-01-27T00:25:59;6.45;;;2.80;;
23561;SDS011;11959;49.418;8.728;2024-01-27T00:28:26;4.13;;;2.80;;
23561;SDS011;11959;49.418;8.728;2024-01-27T00:30:51;4.57;;;2.90;;
23561;SDS011;11959;49.418;8.728;2024-01-27T00:33:17;5.40;;;2.47;;
23561;SDS011;11959;49.418;8.728;2024-01-27T00:35:43;6.60;;;2.47;;
23561;SDS011;11959;49.418;8.728;2024-01-27T00:38:09;6.72;;;2.80;;
23561;SDS011;11959;49.418;8.728;2024-01-27T00:40:34;7.35;;;2.70;;
23561;SDS011;11959;49.418;8.728;2024-01-27T00:43:02;8.05;;;3.33;;
23561;SDS011;11959;49.418;8.728;2024-01-27T00:45:28;8.02;;;2.80;;
23561;SDS011;11959;49.418;8.728;2024-01-27T00:47:55;6.72;;;2.65;;
23561;SDS011;11959;49.418;8.728;2024-01-27T00:50:21;8.18;;;2.80;;
23561;SDS011;11959;49.418;8.728;2024-01-27T00:52:46;8.23;;;2.92;;
23561;SDS011;11959;49.418;8.728;2024-01-27T00:55:12;8.15;;;3.10;;
23561;SDS011;11959;49.418;8.728;2024-01-27T00:57:38;12.45;;;3.60;;
23561;SDS011;11959;49.418;8.728;2024-01-27T01:00:05;8.95;;;3.75;;
23561;SDS011;11959;49.418;8.728;2024-01-27T01:02:31;20.67;;;7.00;;
23561;SDS011;11959;49.418;8.728;2024-01-27T01:04:57;22.08;;;9.90;;
23561;SDS011;11959;49.418;8.728;2024-01-27T01:07:23;18.65;;;9.30;;
23561;SDS011;11959;49.418;8.728;2024-01-27T01:09:48;15.63;;;6.85;;
23561;SDS011;11959;49.418;8.728;2024-01-27T01:12:14;13.55;;;5.57;;
23561;SDS011;11959;49.418;8.728;2024-01-27T01:14:40;10.27;;;4.22;;
23561;SDS011;11959;49.418;8.728;2024-01-27T01:17:06;10.23;;;3.80;;
23561;SDS011;11959;49.418;8.728;2024-01-27T01:19:32;6.75;;;2.97;;
23561;SDS011;11959;49.418;8.728;2024-01-27T01:21:58;8.95;;;3.38;;
23561;SDS011;11959;49.418;8.728;2024-01-27T01:24:24;7.32;;;3.35;;
23561;SDS011;11959;49.418;8.728;2024-01-27T01:26:50;10.23;;;3.72;;
23561;SDS011;11959;49.418;8.728;2024-01-27T01:29:16;12.90;;;4.80;;
23561;SDS011;11959;49.418;8.728;2024-01-27T01:31:42;9.02;;;4.68;;
23561;SDS011;11959;49.418;8.728;2024-01-27T01:34:08;9.80;;;3.70;;
23561;SDS011;11959;49.418;8.728;2024-01-27T01:36:33;8.80;;;3.50;;
23561;SDS011;11959;49.418;8.728;2024-01-27T01:38:59;7.10;;;3.72;;
23561;SDS011;11959;49.418;8.728;2024-01-27T01:41:25;9.85;;;4.28;;
23561;SDS011;11959;49.418;8.728;2024-01-27T01:43:50;10.13;;;4.72;;
23561;SDS011;11959;49.418;8.728;2024-01-27T01:46:16;9.15;;;3.92;;
23561;SDS011;11959;49.418;8.728;2024-01-27T01:48:42;10.82;;;3.45;;
23561;SDS011;11959;49.418;8.728;2024-01-27T01:51:08;7.93;;;2.55;;
23561;SDS011;11959;49.418;8.728;2024-01-27T01:53:34;8.73;;;3.05;;
23561;SDS011;11959;49.418;8.728;2024-01-27T01:56:00;9.52;;;3.72;;
23561;SDS011;11959;49.418;8.728;2024-01-27T01:58:27;7.90;;;3.20;;
23561;SDS011;11959;49.418;8.728;2024-01-27T02:00:59;10.75;;;3.50;;
23561;SDS011;11959;49.418;8.728;2024-01-27T02:03:25;8.23;;;3.05;;
23561;SDS011;11959;49.418;8.728;2024-01-27T02:05:51;10.02;;;3.00;;
23561;SDS011;11959;49.418;8.728;2024-01-27T02:08:16;7.00;;;3.20;;
23561;SDS011;11959;49.418;8.728;2024-01-27T02:10:42;8.15;;;2.70;;
23561;SDS011;11959;49.418;8.728;2024-01-27T02:13:16;5.85;;;2.22;;
23561;SDS011;11959;49.418;8.728;2024-01-27T02:15:45;4.45;;;2.13;;
23561;SDS011;11959;49.418;8.728;2024-01-27T02:18:11;6.88;;;2.80;;
23561;SDS011;11959;49.418;8.728;2024-01-27T02:20:37;6.03;;;2.20;;
23561;SDS011;11959;49.418;8.728;2024-01-27T02:23:03;6.15;;;2.70;;
23561;SDS011;11959;49.418;8.728;2024-01-27T02:25:30;7.93;;;3.13;;
23561;SDS011;11959;49.418;8.728;2024-01-27T02:27:56;6.65;;;2.85;;
23561;SDS011;11959;49.418;8.728;2024-01-27T02:30:22;6.25;;;3.00;;
23561;SDS011;11959;49.418;8.728;2024-01-27T02:32:47;8.15;;;2.90;;
23561;SDS011;11959;49.418;8.728;2024-01-27T02:35:13;10.02;;;3.40;;
23561;SDS011;11959;49.418;8.728;2024-01-27T02:37:39;6.63;;;3.03;;
23561;SDS011;11959;49.418;8.728;2024-01-27T02:40:06;6.13;;;3.17;;
23561;SDS011;11959;49.418;8.728;2024-01-27T02:42:32;8.50;;;3.38;;
23561;SDS011;11959;49.418;8.728;2024-01-27T02:44:58;7.90;;;3.67;;
23561;SDS011;11959;49.418;8.728;2024-01-27T02:47:24;6.85;;;3.70;;
23561;SDS011;11959;49.418;8.728;2024-01-27T02:49:49;6.90;;;3.22;;
23561;SDS011;11959;49.418;8.728;2024-01-27T02:52:15;6.18;;;3.95;;
23561;SDS011;11959;49.418;8.728;2024-01-27T02:54:41;8.95;;;3.60;;
23561;SDS011;11959;49.418;8.728;2024-01-27T02:57:06;8.23;;;3.88;;
23561;SDS011;11959;49.418;8.728;2024-01-27T02:59:32;7.95;;;3.55;;
23561;SDS011;11959;49.418;8.728;2024-01-27T03:01:57;7.90;;;3.80;;
23561;SDS011;11959;49.418;8.728;2024-01-27T03:04:24;9.75;;;4.70;;
23561;SDS011;11959;49.418;8.728;2024-01-27T03:06:50;7.80;;;4.35;;
23561;SDS011;11959;49.418;8.728;2024-01-27T03:09:15;7.40;;;4.25;;
23561;SDS011;11959;49.418;8.728;2024-01-27T03:11:41;6.03;;;4.15;;
23561;SDS011;11959;49.418;8.728;2024-01-27T03:14:07;8.18;;;4.13;;
23561;SDS011;11959;49.418;8.728;2024-01-27T03:16:32;7.72;;;4.00;;
23561;SDS011;11959;49.418;8.728;2024-01-27T03:18:58;8.57;;;4.38;;
23561;SDS011;11959;49.418;8.728;2024-01-27T03:21:24;53.08;;;8.13;;
23561;SDS011;11959;49.418;8.728;2024-01-27T03:23:50;5.63;;;3.85;;
23561;SDS011;11959;49.418;8.728;2024-01-27T03:26:16;6.97;;;3.72;;
23561;SDS011;11959;49.418;8.728;2024-01-27T03:28:42;7.25;;;3.95;;
23561;SDS011;11959;49.418;8.728;2024-01-27T03:31:07;9.48;;;4.18;;
23561;SDS011;11959;49.418;8.728;2024-01-27T03:33:33;7.03;;;4.45;;
23561;SDS011;11959;49.418;8.728;2024-01-27T03:35:59;5.57;;;3.90;;
23561;SDS011;11959;49.418;8.728;2024-01-27T03:38:24;13.57;;;4.57;;
23561;SDS011;11959;49.418;8.728;2024-01-27T03:40:50;6.40;;;4.03;;
23561;SDS011;11959;49.418;8.728;2024-01-27T03:43:16;5.18;;;3.80;;
23561;SDS011;11959;49.418;8.728;2024-01-27T03:45:41;8.02;;;4.07;;
23561;SDS011;11959;49.418;8.728;2024-01-27T03:48:07;5.32;;;3.75;;
23561;SDS011;11959;49.418;8.728;2024-01-27T03:50:32;5.07;;;3.35;;
23561;SDS011;11959;49.418;8.728;2024-01-27T03:52:58;9.32;;;4.38;;
23561;SDS011;11959;49.418;8.728;2024-01-27T03:55:24;6.47;;;4.03;;
23561;SDS011;11959;49.418;8.728;2024-01-27T03:57:49;7.00;;;4.15;;
23561;SDS011;11959;49.418;8.728;2024-01-27T04:00:15;5.63;;;3.88;;
23561;SDS011;11959;49.418;8.728;2024-01-27T04:02:41;6.72;;;3.53;;
23561;SDS011;11959;49.418;8.728;2024-01-27T04:05:06;5.68;;;3.30;;
23561;SDS011;11959;49.418;8.728;2024-01-27T04:07:32;6.18;;;3.53;;
23561;SDS011;11959;49.418;8.728;2024-01-27T04:09:58;12.98;;;4.45;;
23561;SDS011;11959;49.418;8.728;2024-01-27T04:12:23;11.63;;;4.60;;
23561;SDS011;11959;49.418;8.728;2024-01-27T04:14:49;5.78;;;3.85;;
23561;SDS011;11959;49.418;8.728;2024-01-27T04:17:15;5.70;;;3.72;;
23561;SDS011;11959;49.418;8.728;2024-01-27T04:19:40;5.30;;;3.90;;
23561;SDS011;11959;49.418;8.728;2024-01-27T04:22:06;4.55;;;3.50;;
23561;SDS011;11959;49.418;8.728;2024-01-27T04:24:32;5.90;;;3.65;;
23561;SDS011;11959;49.418;8.728;2024-01-27T04:26:58;5.85;;;3.92;;
23561;SDS011;11959;49.418;8.728;2024-01-27T04:29:25;4.97;;;3.58;;
23561;SDS011;11959;49.418;8.728;2024-01-27T04:31:50;6.22;;;3.80;;
23561;SDS011;11959;49.418;8.728;2024-01-27T04:34:16;5.40;;;3.83;;
23561;SDS011;11959;49.418;8.728;2024-01-27T04:36:42;7.78;;;3.97;;
23561;SDS011;11959;49.418;8.728;2024-01-27T04:39:07;5.00;;;3.60;;
23561;SDS011;11959;49.418;8.728;2024-01-27T04:41:33;9.57;;;4.03;;
23561;SDS011;11959;49.418;8.728;2024-01-27T04:43:58;4.35;;;3.40;;
23561;SDS011;11959;49.418;8.728;2024-01-27T04:46:24;5.75;;;3.25;;
23561;SDS011;11959;49.418;8.728;2024-01-27T04:48:50;12.13;;;4.40;;
23561;SDS011;11959;49.418;8.728;2024-01-27T04:51:15;8.88;;;3.90;;
23561;SDS011;11959;49.418;8.728;2024-01-27T04:53:41;17.63;;;4.00;;
23561;SDS011;11959;49.418;8.728;2024-01-27T04:56:07;6.28;;;3.35;;
23561;SDS011;11959;49.418;8.728;2024-01-27T04:58:34;11.98;;;3.90;;
23561;SDS011;11959;49.418;8.728;2024-01-27T05:01:01;20.02;;;4.38;;
23561;SDS011;11959;49.418;8.728;2024-01-27T05:03:27;20.55;;;4.35;;
23561;SDS011;11959;49.418;8.728;2024-01-27T05:05:53;20.70;;;4.50;;
23561;SDS011;11959;49.418;8.728;2024-01-27T05:08:19;8.63;;;3.80;;
23561;SDS011;11959;49.418;8.728;2024-01-27T05:10:44;9.85;;;3.58;;
23561;SDS011;11959;49.418;8.728;2024-01-27T05:13:10;12.82;;;3.72;;
23561;SDS011;11959;49.418;8.728;2024-01-27T05:15:36;19.48;;;4.45;;
23561;SDS011;11959;49.418;8.728;2024-01-27T05:18:01;20.27;;;4.38;;
23561;SDS011;11959;49.418;8.728;2024-01-27T05:20:27;15.70;;;4.22;;
23561;SDS011;11959;49.418;8.728;2024-01-27T05:22:53;6.22;;;3.58;;
23561;SDS011;11959;49.418;8.728;2024-01-27T05:25:18;13.68;;;4.32;;
23561;SDS011;11959;49.418;8.728;2024-01-27T05:27:44;11.77;;;3.60;;
23561;SDS011;11959;49.418;8.728;2024-01-27T05:30:10;14.27;;;3.95;;
23561;SDS011;11959;49.418;8.728;2024-01-27T05:32:37;8.68;;;3.40;;
23561;SDS011;11959;49.418;8.728;2024-01-27T05:35:03;7.43;;;3.60;;
23561;SDS011;11959;49.418;8.728;2024-01-27T05:37:30;6.35;;;3.60;;
23561;SDS011;11959;49.418;8.728;2024-01-27T05:39:55;5.63;;;3.35;;
23561;SDS011;11959;49.418;8.728;2024-01-27T05:42:21;6.00;;;3.38;;
23561;SDS011;11959;49.418;8.728;2024-01-27T05:44:47;7.28;;;3.50;;
23561;SDS011;11959;49.418;8.728;2024-01-27T05:47:12;5.78;;;3.30;;
23561;SDS011;11959;49.418;8.728;2024-01-27T05:49:38;4.80;;;3.70;;
23561;SDS011;11959;49.418;8.728;2024-01-27T05:52:04;5.00;;;3.38;;
23561;SDS011;11959;49.418;8.728;2024-01-27T05:54:30;6.15;;;3.90;;
23561;SDS011;11959;49.418;8.728;2024-01-27T05:56:56;7.20;;;4.00;;
23561;SDS011;11959;49.418;8.728;2024-01-27T05:59:21;6.00;;;3.63;;
23561;SDS011;11959;49.418;8.728;2024-01-27T06:01:47;4.90;;;3.30;;
23561;SDS011;11959;49.418;8.728;2024-01-27T06:04:13;5.03;;;3.45;;
23561;SDS011;11959;49.418;8.728;2024-01-27T06:06:38;5.85;;;3.85;;
23561;SDS011;11959;49.418;8.728;2024-01-27T06:09:07;8.73;;;4.20;;
23561;SDS011;11959;49.418;8.728;2024-01-27T06:11:36;35.05;;;6.15;;
23561;SDS011;11959;49.418;8.728;2024-01-27T06:14:02;8.10;;;3.67;;
23561;SDS011;11959;49.418;8.728;2024-01-27T06:16:28;15.55;;;4.63;;
23561;SDS011;11959;49.418;8.728;2024-01-27T06:18:54;11.05;;;4.40;;
23561;SDS011;11959;49.418;8.728;2024-01-27T06:21:19;5.60;;;3.60;;
23561;SDS011;11959;49.418;8.728;2024-01-27T06:23:46;7.10;;;4.00;;
23561;SDS011;11959;49.418;8.728;2024-01-27T06:26:12;5.90;;;3.67;;
23561;SDS011;11959;49.418;8.728;2024-01-27T06:28:38;7.07;;;3.90;;
23561;SDS011;11959;49.418;8.728;2024-01-27T06:31:04;4.93;;;3.53;;
23561;SDS011;11959;49.418;8.728;2024-01-27T06:33:31;7.40;;;3.90;;
23561;SDS011;11959;49.418;8.728;2024-01-27T06:35:56;5.35;;;4.15;;
23561;SDS011;11959;49.418;8.728;2024-01-27T06:38:22;7.63;;;4.38;;
23561;SDS011;11959;49.418;8.728;2024-01-27T06:40:48;6.35;;;3.60;;
23561;SDS011;11959;49.418;8.728;2024-01-27T06:43:14;5.63;;;3.83;;
23561;SDS011;11959;49.418;8.728;2024-01-27T06:45:39;6.78;;;3.90;;
23561;SDS011;11959;49.418;8.728;2024-01-27T06:48:05;6.07;;;4.05;;
23561;SDS011;11959;49.418;8.728;2024-01-27T06:50:32;7.47;;;4.47;;
23561;SDS011;11959;49.418;8.728;2024-01-27T06:52:58;5.60;;;4.03;;
23561;SDS011;11959;49.418;8.728;2024-01-27T06:55:24;7.05;;;4.47;;
23561;SDS011;11959;49.418;8.728;2024-01-27T06:57:50;9.82;;;4.80;;
23561;SDS011;11959;49.418;8.728;2024-01-27T07:00:16;6.25;;;4.45;;
23561;SDS011;11959;49.418;8.728;2024-01-27T07:02:43;11.75;;;5.60;;
23561;SDS011;11959;49.418;8.728;2024-01-27T07:05:09;10.80;;;5.43;;
23561;SDS011;11959;49.418;8.728;2024-01-27T07:07:35;10.30;;;6.35;;
23561;SDS011;11959;49.418;8.728;2024-01-27T07:10:01;7.20;;;4.90;;
23561;SDS011;11959;49.418;8.728;2024-01-27T07:12:27;10.32;;;5.10;;
23561;SDS011;11959;49.418;8.728;2024-01-27T07:14:53;10.82;;;5.90;;
23561;SDS011;11959;49.418;8.728;2024-01-27T07:17:21;15.88;;;7.70;;
23561;SDS011;11959;49.418;8.728;2024-01-27T07:19:47;14.23;;;7.07;;
23561;SDS011;11959;49.418;8.728;2024-01-27T07:22:12;11.43;;;4.82;;
23561;SDS011;11959;49.418;8.728;2024-01-27T07:24:38;5.60;;;3.78;;
23561;SDS011;11959;49.418;8.728;2024-01-27T07:27:04;8.50;;;4.07;;
23561;SDS011;11959;49.418;8.728;2024-01-27T07:29:30;6.18;;;3.50;;
23561;SDS011;11959;49.418;8.728;2024-01-27T07:31:55;5.30;;;3.45;;
23561;SDS011;11959;49.418;8.728;2024-01-27T07:34:21;5.03;;;3.33;;
23561;SDS011;11959;49.418;8.728;2024-01-27T07:36:47;6.65;;;3.40;;
23561;SDS011;11959;49.418;8.728;2024-01-27T07:39:15;6.18;;;3.92;;
23561;SDS011;11959;49.418;8.728;2024-01-27T07:41:41;7.38;;;4.00;;
23561;SDS011;11959;49.418;8.728;2024-01-27T07:44:11;6.80;;;4.55;;
23561;SDS011;11959;49.418;8.728;2024-01-27T07:46:38;7.63;;;3.88;;
23561;SDS011;11959;49.418;8.728;2024-01-27T07:49:08;11.68;;;5.00;;
23561;SDS011;11959;49.418;8.728;2024-01-27T07:51:34;7.85;;;4.75;;
23561;SDS011;11959;49.418;8.728;2024-01-27T07:54:00;17.95;;;5.28;;
23561;SDS011;11959;49.418;8.728;2024-01-27T07:56:26;12.00;;;5.05;;
23561;SDS011;11959;49.418;8.728;2024-01-27T07:58:52;16.15;;;5.60;;
23561;SDS011;11959;49.418;8.728;2024-01-27T08:01:18;10.57;;;4.72;;
23561;SDS011;11959;49.418;8.728;2024-01-27T08:03:45;41.05;;;9.75;;
23561;SDS011;11959;49.418;8.728;2024-01-27T08:06:15;39.60;;;11.35;;
23561;SDS011;11959;49.418;8.728;2024-01-27T08:08:48;19.45;;;8.45;;
23561;SDS011;11959;49.418;8.728;2024-01-27T08:11:14;13.18;;;6.95;;
23561;SDS011;11959;49.418;8.728;2024-01-27T08:13:41;17.52;;;8.57;;
23561;SDS011;11959;49.418;8.728;2024-01-27T08:16:07;34.00;;;13.02;;
23561;SDS011;11959;49.418;8.728;2024-01-27T08:18:35;21.58;;;9.73;;
23561;SDS011;11959;49.418;8.728;2024-01-27T08:21:02;19.10;;;11.57;;
23561;SDS011;11959;49.418;8.728;2024-01-27T08:23:28;15.13;;;7.53;;
23561;SDS011;11959;49.418;8.728;2024-01-27T08:25:54;27.92;;;9.93;;
23561;SDS011;11959;49.418;8.728;2024-01-27T08:28:19;31.38;;;8.82;;
23561;SDS011;11959;49.418;8.728;2024-01-27T08:30:45;14.40;;;6.50;;
23561;SDS011;11959;49.418;8.728;2024-01-27T08:33:11;14.48;;;6.80;;
23561;SDS011;11959;49.418;8.728;2024-01-27T08:35:36;11.00;;;6.78;;
23561;SDS011;11959;49.418;8.728;2024-01-27T08:38:03;15.40;;;6.85;;
23561;SDS011;11959;49.418;8.728;2024-01-27T08:40:31;11.05;;;6.18;;
23561;SDS011;11959;49.418;8.728;2024-01-27T08:42:56;14.43;;;5.90;;
23561;SDS011;11959;49.418;8.728;2024-01-27T08:45:22;9.18;;;5.40;;
23561;SDS011;11959;49.418;8.728;2024-01-27T08:47:48;11.68;;;6.47;;
23561;SDS011;11959;49.418;8.728;2024-01-27T08:50:14;9.02;;;5.85;;
23561;SDS011;11959;49.418;8.728;2024-01-27T08:52:40;15.75;;;6.45;;
23561;SDS011;11959;49.418;8.728;2024-01-27T08:55:06;11.75;;;6.85;;
23561;SDS011;11959;49.418;8.728;2024-01-27T08:57:32;11.38;;;6.72;;
23561;SDS011;11959;49.418;8.728;2024-01-27T08:59:57;12.68;;;6.60;;
23561;SDS011;11959;49.418;8.728;2024-01-27T09:02:23;12.45;;;6.22;;
23561;SDS011;11959;49.418;8.728;2024-01-27T09:04:48;11.57;;;5.97;;
23561;SDS011;11959;49.418;8.728;2024-01-27T09:07:14;13.38;;;6.32;;
23561;SDS011;11959;49.418;8.728;2024-01-27T09:09:41;12.70;;;6.63;;
23561;SDS011;11959;49.418;8.728;2024-01-27T09:12:06;11.02;;;6.15;;
23561;SDS011;11959;49.418;8.728;2024-01-27T09:14:32;12.52;;;7.50;;
23561;SDS011;11959;49.418;8.728;2024-01-27T09:17:00;14.25;;;7.22;;
23561;SDS011;11959;49.418;8.728;2024-01-27T09:19:27;12.00;;;7.03;;
23561;SDS011;11959;49.418;8.728;2024-01-27T09:21:53;11.30;;;6.93;;
23561;SDS011;11959;49.418;8.728;2024-01-27T09:24:18;9.93;;;6.65;;
23561;SDS011;11959;49.418;8.728;2024-01-27T09:26:44;10.30;;;6.75;;
23561;SDS011;11959;49.418;8.728;2024-01-27T09:29:10;10.70;;;6.82;;
23561;SDS011;11959;49.418;8.728;2024-01-27T09:31:35;13.57;;;6.72;;
23561;SDS011;11959;49.418;8.728;2024-01-27T09:34:01;10.10;;;6.63;;
23561;SDS011;11959;49.418;8.728;2024-01-27T09:36:27;10.00;;;6.45;;
23561;SDS011;11959;49.418;8.728;2024-01-27T09:38:53;10.30;;;7.15;;
23561;SDS011;11959;49.418;8.728;2024-01-27T09:41:19;28.42;;;8.15;;
23561;SDS011;11959;49.418;8.728;2024-01-27T09:43:46;11.95;;;7.25;;
23561;SDS011;11959;49.418;8.728;2024-01-27T09:46:13;13.75;;;7.65;;
23561;SDS011;11959;49.418;8.728;2024-01-27T09:48:42;18.35;;;7.25;;
23561;SDS011;11959;49.418;8.728;2024-01-27T09:51:08;13.98;;;7.35;;
23561;SDS011;11959;49.418;8.728;2024-01-27T09:53:35;12.93;;;7.88;;
23561;SDS011;11959;49.418;8.728;2024-01-27T09:56:01;10.65;;;6.85;;
23561;SDS011;11959;49.418;8.728;2024-01-27T09:58:28;11.27;;;6.70;;
23561;SDS011;11959;49.418;8.728;2024-01-27T10:00:55;11.23;;;7.05;;
23561;SDS011;11959;49.418;8.728;2024-01-27T10:03:23;11.80;;;7.65;;
23561;SDS011;11959;49.418;8.728;2024-01-27T10:05:50;10.57;;;6.88;;
23561;SDS011;11959;49.418;8.728;2024-01-27T10:08:21;7.97;;;6.00;;
23561;SDS011;11959;49.418;8.728;2024-01-27T10:10:57;12.25;;;6.60;;
23561;SDS011;11959;49.418;8.728;2024-01-27T10:13:23;9.18;;;6.07;;
23561;SDS011;11959;49.418;8.728;2024-01-27T10:16:07;12.88;;;7.13;;
23561;SDS011;11959;49.418;8.728;2024-01-27T10:18:35;9.00;;;6.30;;
23561;SDS011;11959;49.418;8.728;2024-01-27T10:21:11;8.95;;;6.00;;
23561;SDS011;11959;49.418;8.728;2024-01-27T10:23:39;9.68;;;6.43;;
23561;SDS011;11959;49.418;8.728;2024-01-27T10:26:05;12.57;;;7.25;;
23561;SDS011;11959;49.418;8.728;2024-01-27T10:28:33;11.30;;;7.10;;
23561;SDS011;11959;49.418;8.728;2024-01-27T10:31:09;12.13;;;7.28;;
23561;SDS011;11959;49.418;8.728;2024-01-27T10:33:34;10.50;;;6.47;;
23561;SDS011;11959;49.418;8.728;2024-01-27T10:36:00;9.90;;;6.78;;
23561;SDS011;11959;49.418;8.728;2024-01-27T10:38:35;10.63;;;7.03;;
23561;SDS011;11959;49.418;8.728;2024-01-27T10:41:07;10.02;;;6.43;;
23561;SDS011;11959;49.418;8.728;2024-01-27T10:43:35;10.13;;;6.25;;
23561;SDS011;11959;49.418;8.728;2024-01-27T10:46:03;11.57;;;6.30;;
23561;SDS011;11959;49.418;8.728;2024-01-27T10:48:35;11.15;;;6.53;;
23561;SDS011;11959;49.418;8.728;2024-01-27T10:51:08;12.98;;;6.22;;
23561;SDS011;11959;49.418;8.728;2024-01-27T10:53:36;8.95;;;6.18;;
23561;SDS011;11959;49.418;8.728;2024-01-27T10:56:06;11.50;;;5.88;;
23561;SDS011;11959;49.418;8.728;2024-01-27T10:58:34;12.00;;;6.35;;
23561;SDS011;11959;49.418;8.728;2024-01-27T11:01:09;12.60;;;5.87;;
23561;SDS011;11959;49.418;8.728;2024-01-27T11:03:39;11.52;;;5.47;;
23561;SDS011;11959;49.418;8.728;2024-01-27T11:06:05;12.85;;;6.13;;
23561;SDS011;11959;49.418;8.728;2024-01-27T11:08:32;12.68;;;6.68;;
23561;SDS011;11959;49.418;8.728;2024-01-27T11:10:59;16.80;;;6.85;;
23561;SDS011;11959;49.418;8.728;2024-01-27T11:13:26;10.60;;;5.28;;
23561;SDS011;11959;49.418;8.728;2024-01-27T11:15:54;11.07;;;5.57;;
23561;SDS011;11959;49.418;8.728;2024-01-27T11:18:20;11.70;;;4.72;;
23561;SDS011;11959;49.418;8.728;2024-01-27T11:20:46;9.05;;;4.32;;
23561;SDS011;11959;49.418;8.728;2024-01-27T11:23:12;9.20;;;3.33;;
23561;SDS011;11959;49.418;8.728;2024-01-27T11:25:39;9.40;;;4.03;;
23561;SDS011;11959;49.418;8.728;2024-01-27T11:28:15;9.75;;;4.13;;
23561;SDS011;11959;49.418;8.728;2024-01-27T11:30:45;12.93;;;4.30;;
23561;SDS011;11959;49.418;8.728;2024-01-27T11:33:12;9.18;;;3.42;;
23561;SDS011;11959;49.418;8.728;2024-01-27T11:35:39;12.25;;;3.47;;
23561;SDS011;11959;49.418;8.728;2024-01-27T11:38:05;8.70;;;2.75;;
23561;SDS011;11959;49.418;8.728;2024-01-27T11:40:31;7.95;;;2.83;;
23561;SDS011;11959;49.418;8.728;2024-01-27T11:43:01;8.93;;;2.65;;
23561;SDS011;11959;49.418;8.728;2024-01-27T11:45:27;10.30;;;3.58;;
23561;SDS011;11959;49.418;8.728;2024-01-27T11:47:57;8.23;;;3.30;;
23561;SDS011;11959;49.418;8.728;2024-01-27T11:50:25;9.52;;;3.10;;
23561;SDS011;11959;49.418;8.728;2024-01-27T11:52:51;7.75;;;2.92;;
23561;SDS011;11959;49.418;8.728;2024-01-27T11:55:16;13.13;;;3.42;;
23561;SDS011;11959;49.418;8.728;2024-01-27T11:57:44;17.65;;;3.20;;
23561;SDS011;11959;49.418;8.728;2024-01-27T12:00:10;5.97;;;2.97;;
23561;SDS011;11959;49.418;8.728;2024-01-27T12:02:36;10.32;;;2.55;;
23561;SDS011;11959;49.418;8.728;2024-01-27T12:05:02;6.80;;;2.78;;
23561;SDS011;11959;49.418;8.728;2024-01-27T12:07:29;9.65;;;2.53;;
23561;SDS011;11959;49.418;8.728;2024-01-27T12:09:56;8.23;;;3.00;;
23561;SDS011;11959;49.418;8.728;2024-01-27T12:12:21;14.10;;;3.45;;
23561;SDS011;11959;49.418;8.728;2024-01-27T12:14:48;11.98;;;3.33;;
23561;SDS011;11959;49.418;8.728;2024-01-27T12:17:15;13.38;;;3.42;;
23561;SDS011;11959;49.418;8.728;2024-01-27T12:19:48;9.00;;;2.88;;
23561;SDS011;11959;49.418;8.728;2024-01-27T12:24:48;6.30;;;2.40;;
23561;SDS011;11959;49.418;8.728;2024-01-27T12:27:15;8.77;;;2.58;;
23561;SDS011;11959;49.418;8.728;2024-01-27T12:29:41;13.50;;;3.33;;
23561;SDS011;11959;49.418;8.728;2024-01-27T12:32:07;7.68;;;2.58;;
23561;SDS011;11959;49.418;8.728;2024-01-27T12:34:38;10.00;;;3.03;;
23561;SDS011;11959;49.418;8.728;2024-01-27T12:37:05;8.43;;;2.45;;
23561;SDS011;11959;49.418;8.728;2024-01-27T12:39:33;13.40;;;2.90;;
23561;SDS011;11959;49.418;8.728;2024-01-27T12:41:59;9.07;;;2.53;;
23561;SDS011;11959;49.418;8.728;2024-01-27T12:44:24;10.57;;;2.25;;
23561;SDS011;11959;49.418;8.728;2024-01-27T12:46:50;7.65;;;2.35;;
23561;SDS011;11959;49.418;8.728;2024-01-27T12:49:16;8.05;;;2.50;;
23561;SDS011;11959;49.418;8.728;2024-01-27T12:51:42;11.85;;;2.60;;
23561;SDS011;11959;49.418;8.728;2024-01-27T12:54:08;9.88;;;2.17;;
23561;SDS011;11959;49.418;8.728;2024-01-27T12:56:33;8.70;;;2.30;;
23561;SDS011;11959;49.418;8.728;2024-01-27T12:59:00;7.60;;;2.15;;
23561;SDS011;11959;49.418;8.728;2024-01-27T13:01:25;8.40;;;2.22;;
23561;SDS011;11959;49.418;8.728;2024-01-27T13:03:52;6.40;;;2.60;;
23561;SDS011;11959;49.418;8.728;2024-01-27T13:06:18;8.75;;;2.38;;
23561;SDS011;11959;49.418;8.728;2024-01-27T13:08:44;7.45;;;2.17;;
23561;SDS011;11959;49.418;8.728;2024-01-27T13:11:09;7.22;;;2.67;;
23561;SDS011;11959;49.418;8.728;2024-01-27T13:13:37;6.15;;;2.05;;
23561;SDS011;11959;49.418;8.728;2024-01-27T13:16:04;8.75;;;2.00;;
23561;SDS011;11959;49.418;8.728;2024-01-27T13:18:30;7.07;;;2.20;;
23561;SDS011;11959;49.418;8.728;2024-01-27T13:20:56;6.47;;;2.17;;
23561;SDS011;11959;49.418;8.728;2024-01-27T13:23:21;5.90;;;1.65;;
23561;SDS011;11959;49.418;8.728;2024-01-27T13:25:47;3.13;;;1.40;;
23561;SDS011;11959;49.418;8.728;2024-01-27T13:28:13;8.27;;;1.73;;
23561;SDS011;11959;49.418;8.728;2024-01-27T13:30:39;3.00;;;1.23;;
23561;SDS011;11959;49.418;8.728;2024-01-27T13:33:05;5.45;;;1.35;;
23561;SDS011;11959;49.418;8.728;2024-01-27T13:35:30;6.53;;;1.45;;
23561;SDS011;11959;49.418;8.728;2024-01-27T13:37:56;5.20;;;1.40;;
23561;SDS011;11959;49.418;8.728;2024-01-27T13:40:21;6.35;;;1.48;;
23561;SDS011;11959;49.418;8.728;2024-01-27T13:42:48;6.25;;;1.58;;
23561;SDS011;11959;49.418;8.728;2024-01-27T13:45:14;5.50;;;1.30;;
23561;SDS011;11959;49.418;8.728;2024-01-27T13:47:39;7.13;;;1.67;;
23561;SDS011;11959;49.418;8.728;2024-01-27T13:50:05;3.53;;;1.25;;
23561;SDS011;11959;49.418;8.728;2024-01-27T13:52:31;5.32;;;1.08;;
23561;SDS011;11959;49.418;8.728;2024-01-27T13:54:57;4.78;;;1.45;;
23561;SDS011;11959;49.418;8.728;2024-01-27T13:57:23;6.78;;;1.50;;
23561;SDS011;11959;49.418;8.728;2024-01-27T13:59:49;4.03;;;1.10;;
23561;SDS011;11959;49.418;8.728;2024-01-27T14:02:15;4.55;;;1.25;;
23561;SDS011;11959;49.418;8.728;2024-01-27T14:04:41;6.05;;;1.35;;
23561;SDS011;11959;49.418;8.728;2024-01-27T14:07:06;6.97;;;1.23;;
23561;SDS011;11959;49.418;8.728;2024-01-27T14:09:34;6.50;;;1.25;;
23561;SDS011;11959;49.418;8.728;2024-01-27T14:12:00;3.20;;;1.23;;
23561;SDS011;11959;49.418;8.728;2024-01-27T14:14:26;5.55;;;1.30;;
23561;SDS011;11959;49.418;8.728;2024-01-27T14:16:52;4.70;;;1.27;;
23561;SDS011;11959;49.418;8.728;2024-01-27T14:19:19;6.25;;;1.20;;
23561;SDS011;11959;49.418;8.728;2024-01-27T14:21:44;5.28;;;1.45;;
23561;SDS011;11959;49.418;8.728;2024-01-27T14:24:10;6.03;;;1.45;;
23561;SDS011;11959;49.418;8.728;2024-01-27T14:26:36;3.50;;;1.15;;
23561;SDS011;11959;49.418;8.728;2024-01-27T14:29:02;3.50;;;1.20;;
23561;SDS011;11959;49.418;8.728;2024-01-27T14:31:29;4.03;;;1.15;;
23561;SDS011;11959;49.418;8.728;2024-01-27T14:33:55;5.65;;;1.50;;
23561;SDS011;11959;49.418;8.728;2024-01-27T14:36:21;2.45;;;0.82;;
23561;SDS011;11959;49.418;8.728;2024-01-27T14:38:48;4.22;;;1.17;;
23561;SDS011;11959;49.418;8.728;2024-01-27T14:41:14;3.95;;;1.00;;